Verkhotur'ye, Russia
Current Conditions -  °F | °C
As of 1:00 PM on Monday 24 Nov 2014 (Local Time) from USSS Reporting Station
Clear Clear  
Wind Chill: -17°   Ceiling: Unl
Heat Index:   Visibility: 6mi
Dew Point: -4°   Wind: 18mph
Humidity: 72%   Direction: 280°W
Pressure: 30.48"   Gusts: NA
Location:  58.87°N, 60.78°E
Report Text: USSS 240800Z 28008MPS CAVOK M16/M20 Q1032 76810350 NOSIG RMKQFE753
Loading
Personal Weather Stations






























Interactive Weather Map New forecast layout! Learn more

10-Day Weather Forecast

Advertisements
Track Severe Weather on mobile